sensor_id;sensor_type;location;lat;lon;timestamp;temperature;humidity
41168;DHT22;26906;45.658;9.272;2023-04-24T06:58:15;19.50;99.90
41168;DHT22;26906;45.658;9.272;2023-04-24T07:00:41;19.60;99.90
41168;DHT22;26906;45.658;9.272;2023-04-24T07:03:07;19.60;99.90
41168;DHT22;26906;45.658;9.272;2023-04-24T07:05:32;19.60;99.90
41168;DHT22;26906;45.658;9.272;2023-04-24T07:08:00;19.80;99.90
41168;DHT22;26906;45.658;9.272;2023-04-24T07:10:27;19.90;99.90
41168;DHT22;26906;45.658;9.272;2023-04-24T07:12:54;20.00;99.90
41168;DHT22;26906;45.658;9.272;2023-04-24T07:15:21;20.10;99.90
41168;DHT22;26906;45.658;9.272;2023-04-24T07:17:47;20.30;99.90
41168;DHT22;26906;45.658;9.272;2023-04-24T07:20:13;20.40;99.90
41168;DHT22;26906;45.658;9.272;2023-04-24T07:22:40;20.60;99.90
41168;DHT22;26906;45.658;9.272;2023-04-24T07:25:06;20.70;99.90
41168;DHT22;26906;45.658;9.272;2023-04-24T07:27:32;21.00;99.90
41168;DHT22;26906;45.658;9.272;2023-04-24T07:29:58;21.20;99.90
41168;DHT22;26906;45.658;9.272;2023-04-24T07:32:24;21.30;99.90
41168;DHT22;26906;45.658;9.272;2023-04-24T07:34:49;21.30;99.90
41168;DHT22;26906;45.658;9.272;2023-04-24T07:37:15;21.30;99.90
41168;DHT22;26906;45.658;9.272;2023-04-24T07:39:41;21.50;99.90
41168;DHT22;26906;45.658;9.272;2023-04-24T07:42:07;21.70;99.90
41168;DHT22;26906;45.658;9.272;2023-04-24T07:44:32;21.70;99.90
41168;DHT22;26906;45.658;9.272;2023-04-24T07:46:58;21.70;99.90
41168;DHT22;26906;45.658;9.272;2023-04-24T07:49:24;21.80;99.90
41168;DHT22;26906;45.658;9.272;2023-04-24T07:51:50;21.90;99.90
41168;DHT22;26906;45.658;9.272;2023-04-24T07:54:15;21.90;99.90
41168;DHT22;26906;45.658;9.272;2023-04-24T07:56:41;22.00;99.90
41168;DHT22;26906;45.658;9.272;2023-04-24T07:59:08;22.00;99.90
41168;DHT22;26906;45.658;9.272;2023-04-24T08:01:36;21.90;99.90
41168;DHT22;26906;45.658;9.272;2023-04-24T08:04:02;22.00;99.90
41168;DHT22;26906;45.658;9.272;2023-04-24T08:06:28;21.90;99.90
41168;DHT22;26906;45.658;9.272;2023-04-24T08:08:59;22.00;99.90
41168;DHT22;26906;45.658;9.272;2023-04-24T08:11:26;21.90;99.90
41168;DHT22;26906;45.658;9.272;2023-04-24T08:13:51;22.00;99.90
41168;DHT22;26906;45.658;9.272;2023-04-24T08:16:17;22.00;99.90
41168;DHT22;26906;45.658;9.272;2023-04-24T08:18:43;22.10;99.90
41168;DHT22;26906;45.658;9.272;2023-04-24T08:21:09;22.30;99.90
41168;DHT22;26906;45.658;9.272;2023-04-24T08:23:34;22.50;99.90
41168;DHT22;26906;45.658;9.272;2023-04-24T08:26:00;22.60;99.90
41168;DHT22;26906;45.658;9.272;2023-04-24T08:28:26;22.70;99.90
41168;DHT22;26906;45.658;9.272;2023-04-24T08:30:51;22.60;99.90
41168;DHT22;26906;45.658;9.272;2023-04-24T08:33:23;22.50;99.90
41168;DHT22;26906;45.658;9.272;2023-04-24T08:35:51;22.50;99.90
41168;DHT22;26906;45.658;9.272;2023-04-24T08:38:18;22.50;99.90
41168;DHT22;26906;45.658;9.272;2023-04-24T08:40:44;22.60;99.90
41168;DHT22;26906;45.658;9.272;2023-04-24T08:43:12;22.80;99.90
41168;DHT22;26906;45.658;9.272;2023-04-24T08:45:38;22.50;99.90
41168;DHT22;26906;45.658;9.272;2023-04-24T08:48:04;22.50;99.90
41168;DHT22;26906;45.658;9.272;2023-04-24T08:50:32;22.60;99.90
41168;DHT22;26906;45.658;9.272;2023-04-24T08:53:00;22.90;99.90
41168;DHT22;26906;45.658;9.272;2023-04-24T08:55:30;23.00;99.90
41168;DHT22;26906;45.658;9.272;2023-04-24T08:57:56;23.20;99.90
41168;DHT22;26906;45.658;9.272;2023-04-24T09:00:23;23.20;99.90
41168;DHT22;26906;45.658;9.272;2023-04-24T09:02:49;23.20;99.90
41168;DHT22;26906;45.658;9.272;2023-04-24T09:05:17;23.30;99.90
41168;DHT22;26906;45.658;9.272;2023-04-24T09:07:45;23.50;99.90
41168;DHT22;26906;45.658;9.272;2023-04-24T09:10:15;23.50;99.90
41168;DHT22;26906;45.658;9.272;2023-04-24T09:12:41;23.60;99.90
41168;DHT22;26906;45.658;9.272;2023-04-24T09:15:11;23.40;99.90
41168;DHT22;26906;45.658;9.272;2023-04-24T09:17:37;23.40;99.90
41168;DHT22;26906;45.658;9.272;2023-04-24T09:20:03;23.40;99.90
41168;DHT22;26906;45.658;9.272;2023-04-24T09:22:30;23.50;99.90
41168;DHT22;26906;45.658;9.272;2023-04-24T09:25:04;23.50;99.90
41168;DHT22;26906;45.658;9.272;2023-04-24T09:27:33;23.70;99.90
41168;DHT22;26906;45.658;9.272;2023-04-24T09:29:59;23.60;99.90
41168;DHT22;26906;45.658;9.272;2023-04-24T09:32:26;23.40;99.90
41168;DHT22;26906;45.658;9.272;2023-04-24T09:35:12;23.40;99.90
41168;DHT22;26906;45.658;9.272;2023-04-24T09:37:44;23.70;99.90
41168;DHT22;26906;45.658;9.272;2023-04-24T09:40:22;23.70;99.90
41168;DHT22;26906;45.658;9.272;2023-04-24T09:42:52;24.20;99.90
41168;DHT22;26906;45.658;9.272;2023-04-24T09:45:18;24.50;99.90
41168;DHT22;26906;45.658;9.272;2023-04-24T09:47:45;24.50;99.90
41168;DHT22;26906;45.658;9.272;2023-04-24T09:50:16;24.50;99.90
41168;DHT22;26906;45.658;9.272;2023-04-24T09:52:47;24.50;99.90
41168;DHT22;26906;45.658;9.272;2023-04-24T09:55:23;24.70;99.90
41168;DHT22;26906;45.658;9.272;2023-04-24T09:58:00;24.70;99.90
41168;DHT22;26906;45.658;9.272;2023-04-24T10:00:32;24.60;99.90
41168;DHT22;26906;45.658;9.272;2023-04-24T10:03:02;24.70;99.90
41168;DHT22;26906;45.658;9.272;2023-04-24T10:05:29;24.70;99.90
41168;DHT22;26906;45.658;9.272;2023-04-24T10:08:09;24.80;99.90
41168;DHT22;26906;45.658;9.272;2023-04-24T10:10:42;24.60;99.90
41168;DHT22;26906;45.658;9.272;2023-04-24T10:13:11;24.70;99.90
41168;DHT22;26906;45.658;9.272;2023-04-24T10:15:38;24.70;99.90
41168;DHT22;26906;45.658;9.272;2023-04-24T10:18:08;24.70;99.90
41168;DHT22;26906;45.658;9.272;2023-04-24T10:20:36;24.60;99.90
41168;DHT22;26906;45.658;9.272;2023-04-24T10:23:03;24.70;99.90
41168;DHT22;26906;45.658;9.272;2023-04-24T10:25:30;24.80;99.90
41168;DHT22;26906;45.658;9.272;2023-04-24T10:27:57;24.60;99.90
41168;DHT22;26906;45.658;9.272;2023-04-24T10:30:26;24.70;99.90
41168;DHT22;26906;45.658;9.272;2023-04-24T10:32:52;24.80;99.90
41168;DHT22;26906;45.658;9.272;2023-04-24T10:35:18;24.90;99.90
41168;DHT22;26906;45.658;9.272;2023-04-24T10:40:29;25.30;99.90
41168;DHT22;26906;45.658;9.272;2023-04-24T10:42:56;25.40;99.90
41168;DHT22;26906;45.658;9.272;2023-04-24T10:45:23;25.20;99.90
41168;DHT22;26906;45.658;9.272;2023-04-24T10:47:57;25.40;99.90
41168;DHT22;26906;45.658;9.272;2023-04-24T10:50:26;25.20;99.90
41168;DHT22;26906;45.658;9.272;2023-04-24T10:52:55;25.50;99.90
41168;DHT22;26906;45.658;9.272;2023-04-24T10:55:47;25.80;99.90
41168;DHT22;26906;45.658;9.272;2023-04-24T10:58:14;25.80;99.90
41168;DHT22;26906;45.658;9.272;2023-04-24T11:00:44;26.10;99.90
41168;DHT22;26906;45.658;9.272;2023-04-24T11:03:25;26.00;99.90
41168;DHT22;26906;45.658;9.272;2023-04-24T11:05:57;26.10;99.90
41168;DHT22;26906;45.658;9.272;2023-04-24T11:08:45;26.10;99.90
41168;DHT22;26906;45.658;9.272;2023-04-24T11:11:13;26.30;99.90
41168;DHT22;26906;45.658;9.272;2023-04-24T11:14:01;26.20;99.90
41168;DHT22;26906;45.658;9.272;2023-04-24T11:16:27;26.20;99.90
41168;DHT22;26906;45.658;9.272;2023-04-24T11:21:44;26.60;99.90
41168;DHT22;26906;45.658;9.272;2023-04-24T11:27:18;26.70;99.70
41168;DHT22;26906;45.658;9.272;2023-04-24T11:32:30;26.60;99.90
41168;DHT22;26906;45.658;9.272;2023-04-24T11:37:49;26.90;99.90
41168;DHT22;26906;45.658;9.272;2023-04-24T11:40:17;27.10;99.90
41168;DHT22;26906;45.658;9.272;2023-04-24T11:42:47;27.20;99.60
41168;DHT22;26906;45.658;9.272;2023-04-24T11:45:25;27.20;98.90
41168;DHT22;26906;45.658;9.272;2023-04-24T11:47:51;26.90;98.70
41168;DHT22;26906;45.658;9.272;2023-04-24T11:50:19;27.00;98.80
41168;DHT22;26906;45.658;9.272;2023-04-24T11:52:46;27.00;97.50
41168;DHT22;26906;45.658;9.272;2023-04-24T11:57:49;27.20;98.30
41168;DHT22;26906;45.658;9.272;2023-04-24T12:00:16;27.20;98.10
41168;DHT22;26906;45.658;9.272;2023-04-24T12:02:42;27.30;97.20
41168;DHT22;26906;45.658;9.272;2023-04-24T12:05:08;27.40;96.90
41168;DHT22;26906;45.658;9.272;2023-04-24T12:07:41;27.50;97.80
41168;DHT22;26906;45.658;9.272;2023-04-24T12:10:10;27.50;96.80
41168;DHT22;26906;45.658;9.272;2023-04-24T12:12:36;27.60;97.50
41168;DHT22;26906;45.658;9.272;2023-04-24T12:15:07;27.80;97.30
41168;DHT22;26906;45.658;9.272;2023-04-24T12:17:34;27.80;97.50
41168;DHT22;26906;45.658;9.272;2023-04-24T12:20:05;27.70;97.20
41168;DHT22;26906;45.658;9.272;2023-04-24T12:22:54;27.90;96.80
41168;DHT22;26906;45.658;9.272;2023-04-24T12:25:31;27.90;97.00
41168;DHT22;26906;45.658;9.272;2023-04-24T12:30:30;28.10;97.10
41168;DHT22;26906;45.658;9.272;2023-04-24T12:33:02;28.10;96.00
41168;DHT22;26906;45.658;9.272;2023-04-24T12:35:30;28.00;95.70
41168;DHT22;26906;45.658;9.272;2023-04-24T12:38:11;28.00;95.50
41168;DHT22;26906;45.658;9.272;2023-04-24T12:40:41;28.20;95.60
41168;DHT22;26906;45.658;9.272;2023-04-24T12:43:14;28.20;95.50
41168;DHT22;26906;45.658;9.272;2023-04-24T12:45:41;28.20;95.40
41168;DHT22;26906;45.658;9.272;2023-04-24T12:48:06;28.30;96.00
41168;DHT22;26906;45.658;9.272;2023-04-24T12:50:32;28.20;94.30
41168;DHT22;26906;45.658;9.272;2023-04-24T12:52:58;28.20;92.70
41168;DHT22;26906;45.658;9.272;2023-04-24T12:55:23;28.50;93.90
41168;DHT22;26906;45.658;9.272;2023-04-24T12:57:49;28.50;93.50
41168;DHT22;26906;45.658;9.272;2023-04-24T13:00:15;28.30;92.50
41168;DHT22;26906;45.658;9.272;2023-04-24T13:02:42;28.10;93.80
41168;DHT22;26906;45.658;9.272;2023-04-24T13:05:08;28.20;94.50
41168;DHT22;26906;45.658;9.272;2023-04-24T13:07:35;28.30;93.90
41168;DHT22;26906;45.658;9.272;2023-04-24T13:10:00;28.10;92.70
41168;DHT22;26906;45.658;9.272;2023-04-24T13:12:26;28.30;92.30
41168;DHT22;26906;45.658;9.272;2023-04-24T13:14:53;28.20;91.00
41168;DHT22;26906;45.658;9.272;2023-04-24T13:17:19;28.30;92.10
41168;DHT22;26906;45.658;9.272;2023-04-24T13:19:45;28.30;91.50
41168;DHT22;26906;45.658;9.272;2023-04-24T13:22:12;28.20;92.70
41168;DHT22;26906;45.658;9.272;2023-04-24T13:24:39;28.10;91.20
41168;DHT22;26906;45.658;9.272;2023-04-24T13:27:06;28.10;91.20
41168;DHT22;26906;45.658;9.272;2023-04-24T13:29:33;28.20;92.00
41168;DHT22;26906;45.658;9.272;2023-04-24T13:31:58;28.00;92.10
41168;DHT22;26906;45.658;9.272;2023-04-24T13:34:26;27.90;91.80
41168;DHT22;26906;45.658;9.272;2023-04-24T13:36:53;28.00;91.80
41168;DHT22;26906;45.658;9.272;2023-04-24T13:39:20;28.00;91.60
41168;DHT22;26906;45.658;9.272;2023-04-24T13:41:45;28.20;92.20
41168;DHT22;26906;45.658;9.272;2023-04-24T13:44:16;28.50;92.60
41168;DHT22;26906;45.658;9.272;2023-04-24T13:46:44;28.70;92.90
41168;DHT22;26906;45.658;9.272;2023-04-24T13:49:15;28.80;92.00
41168;DHT22;26906;45.658;9.272;2023-04-24T13:51:42;28.70;91.20
41168;DHT22;26906;45.658;9.272;2023-04-24T13:54:08;28.80;92.60
41168;DHT22;26906;45.658;9.272;2023-04-24T13:56:34;28.90;91.30
41168;DHT22;26906;45.658;9.272;2023-04-24T13:59:00;28.80;90.80
41168;DHT22;26906;45.658;9.272;2023-04-24T14:01:26;28.90;90.60
41168;DHT22;26906;45.658;9.272;2023-04-24T14:03:55;29.10;90.60
41168;DHT22;26906;45.658;9.272;2023-04-24T14:06:22;28.80;88.10
41168;DHT22;26906;45.658;9.272;2023-04-24T14:08:48;28.30;90.60
41168;DHT22;26906;45.658;9.272;2023-04-24T14:11:15;28.00;90.50
41168;DHT22;26906;45.658;9.272;2023-04-24T14:13:42;27.90;91.00
41168;DHT22;26906;45.658;9.272;2023-04-24T14:16:09;28.20;90.20
41168;DHT22;26906;45.658;9.272;2023-04-24T14:18:35;28.30;88.40
41168;DHT22;26906;45.658;9.272;2023-04-24T14:21:04;28.40;88.80
41168;DHT22;26906;45.658;9.272;2023-04-24T14:23:30;28.40;89.00
41168;DHT22;26906;45.658;9.272;2023-04-24T14:25:56;28.50;90.20
41168;DHT22;26906;45.658;9.272;2023-04-24T14:28:22;28.60;88.00
41168;DHT22;26906;45.658;9.272;2023-04-24T14:30:48;28.50;88.10
41168;DHT22;26906;45.658;9.272;2023-04-24T14:33:14;28.40;87.20
41168;DHT22;26906;45.658;9.272;2023-04-24T14:35:41;28.40;87.60
41168;DHT22;26906;45.658;9.272;2023-04-24T14:38:10;28.50;86.20
41168;DHT22;26906;45.658;9.272;2023-04-24T14:40:37;28.50;86.30
41168;DHT22;26906;45.658;9.272;2023-04-24T14:43:02;28.30;84.70
41168;DHT22;26906;45.658;9.272;2023-04-24T14:45:28;28.30;86.70
41168;DHT22;26906;45.658;9.272;2023-04-24T14:47:55;28.30;86.80
41168;DHT22;26906;45.658;9.272;2023-04-24T14:50:21;28.40;86.40
41168;DHT22;26906;45.658;9.272;2023-04-24T14:52:47;28.50;87.90
41168;DHT22;26906;45.658;9.272;2023-04-24T14:55:14;28.40;86.40
41168;DHT22;26906;45.658;9.272;2023-04-24T14:57:40;28.30;86.20
41168;DHT22;26906;45.658;9.272;2023-04-24T15:00:06;28.20;85.20
41168;DHT22;26906;45.658;9.272;2023-04-24T15:02:34;28.10;84.00
41168;DHT22;26906;45.658;9.272;2023-04-24T15:05:03;27.90;83.70
41168;DHT22;26906;45.658;9.272;2023-04-24T15:07:29;27.90;85.50
41168;DHT22;26906;45.658;9.272;2023-04-24T15:09:56;27.80;84.40
41168;DHT22;26906;45.658;9.272;2023-04-24T15:12:22;28.00;85.50
41168;DHT22;26906;45.658;9.272;2023-04-24T15:14:48;28.20;85.60
41168;DHT22;26906;45.658;9.272;2023-04-24T15:17:13;28.30;83.40
41168;DHT22;26906;45.658;9.272;2023-04-24T15:19:39;28.10;83.50
41168;DHT22;26906;45.658;9.272;2023-04-24T15:22:04;28.00;84.20
41168;DHT22;26906;45.658;9.272;2023-04-24T15:24:30;28.00;84.10
41168;DHT22;26906;45.658;9.272;2023-04-24T15:26:56;28.10;82.40
41168;DHT22;26906;45.658;9.272;2023-04-24T15:29:22;28.20;83.70
41168;DHT22;26906;45.658;9.272;2023-04-24T15:31:48;28.30;83.50
41168;DHT22;26906;45.658;9.272;2023-04-24T15:34:14;27.70;82.10
41168;DHT22;26906;45.658;9.272;2023-04-24T15:36:39;27.70;82.70
41168;DHT22;26906;45.658;9.272;2023-04-24T15:39:05;27.70;82.00
41168;DHT22;26906;45.658;9.272;2023-04-24T15:41:31;27.70;81.50
41168;DHT22;26906;45.658;9.272;2023-04-24T15:43:57;27.60;81.20
41168;DHT22;26906;45.658;9.272;2023-04-24T15:46:23;27.50;81.20
41168;DHT22;26906;45.658;9.272;2023-04-24T15:48:49;27.30;81.60
41168;DHT22;26906;45.658;9.272;2023-04-24T15:51:15;27.10;79.50
41168;DHT22;26906;45.658;9.272;2023-04-24T15:53:41;27.10;81.00
41168;DHT22;26906;45.658;9.272;2023-04-24T15:56:06;27.10;80.50
41168;DHT22;26906;45.658;9.272;2023-04-24T15:58:32;27.00;79.70
41168;DHT22;26906;45.658;9.272;2023-04-24T16:00:58;27.00;80.60
41168;DHT22;26906;45.658;9.272;2023-04-24T16:03:24;27.10;80.10
41168;DHT22;26906;45.658;9.272;2023-04-24T16:05:50;27.20;81.60
41168;DHT22;26906;45.658;9.272;2023-04-24T16:08:15;27.10;81.20
41168;DHT22;26906;45.658;9.272;2023-04-24T16:10:42;27.20;80.10
41168;DHT22;26906;45.658;9.272;2023-04-24T16:13:08;27.30;81.40
41168;DHT22;26906;45.658;9.272;2023-04-24T16:15:34;27.30;80.40
41168;DHT22;26906;45.658;9.272;2023-04-24T16:18:00;27.30;79.50
41168;DHT22;26906;45.658;9.272;2023-04-24T16:20:26;27.20;81.10
41168;DHT22;26906;45.658;9.272;2023-04-24T16:22:52;27.30;79.30
41168;DHT22;26906;45.658;9.272;2023-04-24T16:25:18;27.30;80.30
41168;DHT22;26906;45.658;9.272;2023-04-24T16:27:44;27.10;79.20
41168;DHT22;26906;45.658;9.272;2023-04-24T16:30:11;27.10;80.30
41168;DHT22;26906;45.658;9.272;2023-04-24T16:32:37;26.80;79.30
41168;DHT22;26906;45.658;9.272;2023-04-24T16:35:02;26.70;79.60
41168;DHT22;26906;45.658;9.272;2023-04-24T16:37:30;26.70;80.70
41168;DHT22;26906;45.658;9.272;2023-04-24T16:39:56;26.80;79.70
41168;DHT22;26906;45.658;9.272;2023-04-24T16:42:22;26.80;79.40
41168;DHT22;26906;45.658;9.272;2023-04-24T16:44:47;26.80;81.30
41168;DHT22;26906;45.658;9.272;2023-04-24T16:47:13;26.70;78.80
41168;DHT22;26906;45.658;9.272;2023-04-24T16:49:41;26.70;79.50
41168;DHT22;26906;45.658;9.272;2023-04-24T16:52:06;26.60;80.00
41168;DHT22;26906;45.658;9.272;2023-04-24T16:54:35;26.60;79.30
41168;DHT22;26906;45.658;9.272;2023-04-24T16:57:02;26.40;79.50
41168;DHT22;26906;45.658;9.272;2023-04-24T16:59:29;26.40;79.60
41168;DHT22;26906;45.658;9.272;2023-04-24T17:01:58;26.20;78.20
41168;DHT22;26906;45.658;9.272;2023-04-24T17:04:23;26.30;79.50
41168;DHT22;26906;45.658;9.272;2023-04-24T17:06:49;26.20;79.20
41168;DHT22;26906;45.658;9.272;2023-04-24T17:09:15;26.00;79.10
41168;DHT22;26906;45.658;9.272;2023-04-24T17:11:42;26.00;80.30
41168;DHT22;26906;45.658;9.272;2023-04-24T17:14:07;25.90;80.10
41168;DHT22;26906;45.658;9.272;2023-04-24T17:16:33;25.80;80.20
41168;DHT22;26906;45.658;9.272;2023-04-24T17:18:59;25.70;80.60
41168;DHT22;26906;45.658;9.272;2023-04-24T17:21:25;25.60;82.10
41168;DHT22;26906;45.658;9.272;2023-04-24T17:23:52;25.50;82.30
41168;DHT22;26906;45.658;9.272;2023-04-24T17:26:18;25.50;80.80
41168;DHT22;26906;45.658;9.272;2023-04-24T17:28:44;25.40;83.50
41168;DHT22;26906;45.658;9.272;2023-04-24T17:31:10;25.30;80.60
41168;DHT22;26906;45.658;9.272;2023-04-24T17:33:36;25.20;81.50
41168;DHT22;26906;45.658;9.272;2023-04-24T17:47:59;25.10;83.10
41168;DHT22;26906;45.658;9.272;2023-04-24T17:50:25;24.80;82.00
41168;DHT22;26906;45.658;9.272;2023-04-24T17:52:52;24.70;81.70
41168;DHT22;26906;45.658;9.272;2023-04-24T17:55:17;24.60;82.10
41168;DHT22;26906;45.658;9.272;2023-04-24T17:57:43;24.50;84.60
41168;DHT22;26906;45.658;9.272;2023-04-24T18:00:09;24.40;84.50
41168;DHT22;26906;45.658;9.272;2023-04-24T18:02:35;24.30;84.50
41168;DHT22;26906;45.658;9.272;2023-04-24T18:05:01;24.10;85.10
41168;DHT22;26906;45.658;9.272;2023-04-24T18:07:27;23.90;86.30
41168;DHT22;26906;45.658;9.272;2023-04-24T18:09:52;23.80;87.50
41168;DHT22;26906;45.658;9.272;2023-04-24T18:12:18;23.80;90.70
41168;DHT22;26906;45.658;9.272;2023-04-24T18:14:43;23.70;92.10
41168;DHT22;26906;45.658;9.272;2023-04-24T18:17:10;23.60;90.00
41168;DHT22;26906;45.658;9.272;2023-04-24T18:19:35;23.50;88.40
41168;DHT22;26906;45.658;9.272;2023-04-24T18:22:01;23.30;87.90
41168;DHT22;26906;45.658;9.272;2023-04-24T18:24:27;23.20;88.70
41168;DHT22;26906;45.658;9.272;2023-04-24T18:26:52;23.10;89.00
41168;DHT22;26906;45.658;9.272;2023-04-24T18:29:18;22.90;90.20
41168;DHT22;26906;45.658;9.272;2023-04-24T18:31:44;22.70;90.60
41168;DHT22;26906;45.658;9.272;2023-04-24T18:34:09;22.60;91.30
41168;DHT22;26906;45.658;9.272;2023-04-24T18:36:35;22.40;91.60
41168;DHT22;26906;45.658;9.272;2023-04-24T18:39:01;22.30;92.10
41168;DHT22;26906;45.658;9.272;2023-04-24T18:41:27;22.30;92.50
41168;DHT22;26906;45.658;9.272;2023-04-24T18:43:53;22.30;92.40
41168;DHT22;26906;45.658;9.272;2023-04-24T18:46:22;22.20;92.80
41168;DHT22;26906;45.658;9.272;2023-04-24T18:48:47;22.00;93.30
41168;DHT22;26906;45.658;9.272;2023-04-24T18:51:13;21.80;93.60
41168;DHT22;26906;45.658;9.272;2023-04-24T18:53:39;21.80;93.00
41168;DHT22;26906;45.658;9.272;2023-04-24T18:56:05;21.70;85.50
41168;DHT22;26906;45.658;9.272;2023-04-24T18:58:30;21.60;82.40
41168;DHT22;26906;45.658;9.272;2023-04-24T19:00:56;21.50;82.50
41168;DHT22;26906;45.658;9.272;2023-04-24T19:03:22;21.40;81.70
41168;DHT22;26906;45.658;9.272;2023-04-24T19:05:47;21.40;82.10
41168;DHT22;26906;45.658;9.272;2023-04-24T19:08:13;21.30;79.70
41168;DHT22;26906;45.658;9.272;2023-04-24T19:10:39;21.20;81.30
41168;DHT22;26906;45.658;9.272;2023-04-24T19:13:06;21.10;81.10
41168;DHT22;26906;45.658;9.272;2023-04-24T19:15:32;21.20;79.70
41168;DHT22;26906;45.658;9.272;2023-04-24T19:17:58;21.10;79.80
41168;DHT22;26906;45.658;9.272;2023-04-24T19:20:25;21.00;80.30
41168;DHT22;26906;45.658;9.272;2023-04-24T19:22:51;20.80;79.80
41168;DHT22;26906;45.658;9.272;2023-04-24T19:25:16;20.70;79.90
41168;DHT22;26906;45.658;9.272;2023-04-24T19:27:42;20.60;80.50
41168;DHT22;26906;45.658;9.272;2023-04-24T19:30:08;20.50;81.10
41168;DHT22;26906;45.658;9.272;2023-04-24T19:32:34;20.50;81.00
41168;DHT22;26906;45.658;9.272;2023-04-24T19:35:01;20.40;82.30
41168;DHT22;26906;45.658;9.272;2023-04-24T19:37:28;20.30;82.50
41168;DHT22;26906;45.658;9.272;2023-04-24T19:39:56;20.20;83.10
41168;DHT22;26906;45.658;9.272;2023-04-24T19:42:22;20.20;83.30
41168;DHT22;26906;45.658;9.272;2023-04-24T19:44:48;20.10;83.30
41168;DHT22;26906;45.658;9.272;2023-04-24T19:47:14;20.00;83.00
41168;DHT22;26906;45.658;9.272;2023-04-24T19:49:39;19.90;83.10
41168;DHT22;26906;45.658;9.272;2023-04-24T19:52:05;20.00;82.70
41168;DHT22;26906;45.658;9.272;2023-04-24T19:54:31;19.90;83.00
41168;DHT22;26906;45.658;9.272;2023-04-24T19:56:56;20.00;82.70
41168;DHT22;26906;45.658;9.272;2023-04-24T19:59:23;19.90;83.80
41168;DHT22;26906;45.658;9.272;2023-04-24T20:01:49;20.00;82.90
41168;DHT22;26906;45.658;9.272;2023-04-24T20:04:16;20.10;82.90
41168;DHT22;26906;45.658;9.272;2023-04-24T20:06:43;20.10;82.30
41168;DHT22;26906;45.658;9.272;2023-04-24T20:09:09;19.90;83.70
41168;DHT22;26906;45.658;9.272;2023-04-24T20:11:34;19.70;87.70
41168;DHT22;26906;45.658;9.272;2023-04-24T20:14:00;19.60;90.00
41168;DHT22;26906;45.658;9.272;2023-04-24T20:16:28;19.50;88.00
